createdAt,value
2024-02-29T00:00:27.921Z,8.82
2024-02-29T00:05:33.490Z,9.98
2024-02-29T00:10:37.706Z,17.27
2024-02-29T00:15:42.210Z,15.02
2024-02-29T00:20:47.684Z,12.20
2024-02-29T00:25:51.871Z,10.13
2024-02-29T00:30:56.023Z,10.02
2024-02-29T00:36:09.444Z,13.95
2024-02-29T00:41:14.509Z,21.63
2024-02-29T00:46:18.720Z,13.77
2024-02-29T00:51:24.173Z,11.32
2024-02-29T00:56:28.198Z,11.82
2024-02-29T01:01:32.479Z,10.85
2024-02-29T01:06:38.470Z,12.55
2024-02-29T01:11:42.597Z,11.32
2024-02-29T01:16:46.729Z,10.77
2024-02-29T01:21:52.357Z,11.02
2024-02-29T01:26:56.501Z,12.75
2024-02-29T01:32:12.095Z,11.73
2024-02-29T01:37:23.904Z,9.40
2024-02-29T01:42:28.208Z,16.40
2024-02-29T01:47:33.456Z,16.38
2024-02-29T01:52:41.694Z,12.35
2024-02-29T01:57:46.410Z,11.00
2024-02-29T02:02:50.565Z,10.48
2024-02-29T02:07:56.577Z,12.10
2024-02-29T02:13:01.509Z,12.32
2024-02-29T02:18:06.125Z,13.13
2024-02-29T02:23:11.537Z,13.82
2024-02-29T02:28:15.746Z,10.30
2024-02-29T02:33:19.882Z,12.38
2024-02-29T02:38:25.449Z,11.10
2024-02-29T02:43:31.268Z,11.60
2024-02-29T02:48:35.506Z,12.32
2024-02-29T02:53:41.200Z,11.55
2024-02-29T02:58:45.182Z,13.23
2024-02-29T03:03:49.201Z,10.07
2024-02-29T03:08:54.551Z,9.52
2024-02-29T03:13:59.067Z,10.25
2024-02-29T03:19:06.214Z,11.23
2024-02-29T03:24:11.665Z,12.82
2024-02-29T03:29:15.839Z,16.05
2024-02-29T03:34:19.999Z,14.80
2024-02-29T03:39:25.495Z,16.05
2024-02-29T03:44:30.044Z,13.68
2024-02-29T03:49:34.172Z,12.60
2024-02-29T03:54:39.595Z,12.07
2024-02-29T03:59:45.620Z,13.25
2024-02-29T04:04:49.678Z,14.95
2024-02-29T04:09:56.342Z,18.40
2024-02-29T04:15:02.878Z,16.73
2024-02-29T04:20:09.944Z,32.75
2024-02-29T04:25:17.587Z,24.88
2024-02-29T04:30:21.856Z,23.02
2024-02-29T04:35:25.997Z,20.48
2024-02-29T04:40:31.694Z,26.85
2024-02-29T04:45:35.933Z,28.92
2024-02-29T04:50:40.051Z,26.42
2024-02-29T04:55:45.718Z,20.40
2024-02-29T05:00:50.162Z,29.52
2024-02-29T05:05:54.257Z,23.75
2024-02-29T05:11:00.436Z,16.15
2024-02-29T05:16:05.957Z,16.67
2024-02-29T05:21:12.052Z,17.60
2024-02-29T05:26:17.611Z,17.52
2024-02-29T05:31:21.737Z,15.75
2024-02-29T05:36:25.993Z,18.90
2024-02-29T05:41:32.121Z,39.08
2024-02-29T05:46:36.415Z,42.45
2024-02-29T05:51:40.379Z,43.28
2024-02-29T05:56:45.847Z,29.58
2024-02-29T06:01:50.698Z,20.27
2024-02-29T06:06:54.859Z,19.25
2024-02-29T06:12:00.483Z,16.15
2024-02-29T06:17:04.814Z,14.60
2024-02-29T06:22:09.348Z,14.98
2024-02-29T06:27:17.282Z,14.48
2024-02-29T06:32:21.684Z,25.20
2024-02-29T06:37:25.760Z,22.27
2024-02-29T06:42:31.338Z,17.92
2024-02-29T06:47:36.028Z,17.13
2024-02-29T06:52:40.312Z,16.13
2024-02-29T06:57:46.017Z,23.60
2024-02-29T07:02:50.270Z,25.75
2024-02-29T07:07:55.875Z,23.67
2024-02-29T07:13:01.948Z,25.15
2024-02-29T07:18:06.290Z,25.40
2024-02-29T07:23:13.580Z,23.85
2024-02-29T07:28:19.418Z,23.23
2024-02-29T07:33:23.686Z,22.10
2024-02-29T07:38:27.889Z,24.83
2024-02-29T07:43:33.492Z,21.73
2024-02-29T07:48:38.694Z,23.50
2024-02-29T07:53:42.782Z,21.63
2024-02-29T07:58:49.154Z,20.05
2024-02-29T08:03:53.188Z,17.77
2024-02-29T08:08:57.269Z,18.27
2024-02-29T08:14:03.248Z,20.35
2024-02-29T08:19:08.178Z,23.58
2024-02-29T08:24:12.955Z,19.23
2024-02-29T08:29:19.455Z,19.83
2024-02-29T08:34:23.696Z,22.77
2024-02-29T08:39:28.129Z,19.17
2024-02-29T08:44:33.706Z,17.15
2024-02-29T08:49:37.843Z,17.38
2024-02-29T08:54:42.198Z,17.83
2024-02-29T08:59:47.914Z,21.38
2024-02-29T09:04:52.315Z,20.15
2024-02-29T09:09:56.468Z,22.60
2024-02-29T09:15:03.777Z,25.08
2024-02-29T09:20:10.384Z,26.67
2024-02-29T09:25:14.937Z,24.88
2024-02-29T09:30:20.624Z,24.50
2024-02-29T09:35:26.256Z,22.63
2024-02-29T09:40:38.554Z,21.90
2024-02-29T09:45:54.274Z,23.88
2024-02-29T09:51:01.797Z,23.08
2024-02-29T09:56:09.280Z,19.63
2024-02-29T10:01:15.774Z,14.82
2024-02-29T10:06:21.474Z,13.00
2024-02-29T10:11:29.968Z,12.43
2024-02-29T10:16:35.721Z,13.47
2024-02-29T10:21:39.842Z,13.80
2024-02-29T10:26:43.978Z,14.07
2024-02-29T10:31:49.464Z,13.55
2024-02-29T10:36:54.006Z,12.77
2024-02-29T10:42:02.590Z,12.90
2024-02-29T10:47:11.552Z,11.70
2024-02-29T10:52:22.391Z,19.23
2024-02-29T10:57:30.231Z,14.10
2024-02-29T11:02:36.047Z,15.88
2024-02-29T11:07:40.158Z,13.82
2024-02-29T11:12:47.583Z,9.27
2024-02-29T11:17:53.206Z,6.72
2024-02-29T11:23:11.196Z,6.38
2024-02-29T11:28:17.788Z,5.23
2024-02-29T11:33:23.942Z,5.00
2024-02-29T11:38:32.993Z,6.30
2024-02-29T11:43:44.371Z,5.03
2024-02-29T11:48:52.665Z,4.93
2024-02-29T11:53:57.472Z,4.85
2024-02-29T11:59:03.382Z,5.20
2024-02-29T12:04:09.213Z,4.75
2024-02-29T12:09:13.922Z,4.97
2024-02-29T12:14:18.791Z,5.45
2024-02-29T12:19:25.192Z,5.70
2024-02-29T12:24:30.701Z,6.85
2024-02-29T12:29:35.818Z,6.22
2024-02-29T12:34:46.268Z,5.93
2024-02-29T12:39:56.278Z,6.47
2024-02-29T12:45:00.866Z,5.72
2024-02-29T12:50:09.198Z,6.18
2024-02-29T12:55:13.601Z,5.60
2024-02-29T13:00:21.914Z,6.50
2024-02-29T13:05:27.258Z,5.72
2024-02-29T13:10:31.592Z,7.22
2024-02-29T13:15:37.186Z,5.78
2024-02-29T13:20:42.561Z,6.25
2024-02-29T13:25:46.985Z,6.90
2024-02-29T13:30:52.616Z,6.03
2024-02-29T13:35:58.143Z,7.30
2024-02-29T13:41:02.158Z,7.75
2024-02-29T13:46:06.961Z,5.45
2024-02-29T13:51:12.492Z,6.20
2024-02-29T13:56:18.795Z,5.65
2024-02-29T14:01:25.314Z,6.55
2024-02-29T14:06:31.735Z,5.95
2024-02-29T14:11:35.950Z,5.22
2024-02-29T14:16:41.499Z,8.65
2024-02-29T14:21:49.682Z,12.10
2024-02-29T14:26:56.070Z,17.35
2024-02-29T14:32:02.078Z,14.40
2024-02-29T14:37:10.087Z,15.15
2024-02-29T14:42:15.596Z,13.30
2024-02-29T14:47:22.159Z,12.10
2024-02-29T14:52:28.971Z,12.77
2024-02-29T14:57:33.196Z,15.45
2024-02-29T15:02:37.271Z,11.80
2024-02-29T15:07:43.350Z,11.10
2024-02-29T15:12:51.260Z,13.27
2024-02-29T15:17:56.478Z,16.05
2024-02-29T15:23:02.157Z,19.48
2024-02-29T15:28:11.245Z,14.82
2024-02-29T15:38:28.005Z,20.05
2024-02-29T15:43:32.411Z,26.23
2024-02-29T15:48:36.583Z,25.10
2024-02-29T15:53:42.097Z,30.27
2024-02-29T15:58:46.150Z,28.08
2024-02-29T16:03:50.395Z,15.88
2024-02-29T16:08:56.061Z,30.80
2024-02-29T16:14:01.914Z,26.75
2024-02-29T16:19:06.218Z,29.42
2024-02-29T16:24:11.957Z,24.77
2024-02-29T16:29:15.982Z,27.63
2024-02-29T16:34:21.390Z,28.33
2024-02-29T16:39:26.929Z,34.17
2024-02-29T16:44:31.172Z,38.58
2024-02-29T16:49:35.602Z,38.80
2024-02-29T16:54:41.325Z,30.20
2024-02-29T16:59:45.497Z,21.65
2024-02-29T17:04:50.774Z,24.42
2024-02-29T17:10:00.507Z,23.17
2024-02-29T17:15:05.243Z,20.95
2024-02-29T17:20:10.261Z,28.10
2024-02-29T17:25:16.019Z,36.08
2024-02-29T17:30:21.461Z,38.03
2024-02-29T17:35:29.341Z,46.28
2024-02-29T17:40:35.006Z,43.28
2024-02-29T17:45:39.109Z,52.38
2024-02-29T17:50:43.141Z,44.85
2024-02-29T17:55:49.018Z,43.17
2024-02-29T18:00:53.189Z,40.58
2024-02-29T18:06:00.597Z,39.33
2024-02-29T18:11:06.637Z,43.15
2024-02-29T18:16:10.858Z,39.85
2024-02-29T18:21:21.418Z,36.83
2024-02-29T18:26:26.880Z,43.88
2024-02-29T18:31:31.400Z,55.15
2024-02-29T18:36:38.318Z,63.55
2024-02-29T18:41:44.676Z,52.05
2024-02-29T18:46:49.210Z,47.28
2024-02-29T18:51:53.876Z,48.70
2024-02-29T18:56:59.453Z,47.33
2024-02-29T19:02:05.354Z,39.42
2024-02-29T19:07:10.491Z,30.45
2024-02-29T19:12:18.493Z,15.27
2024-02-29T19:17:23.592Z,15.75
2024-02-29T19:22:30.742Z,16.33
2024-02-29T19:27:37.341Z,17.00
2024-02-29T19:32:41.796Z,15.43
2024-02-29T19:37:46.751Z,17.48
2024-02-29T19:42:53.850Z,16.52
2024-02-29T19:48:00.062Z,15.20
2024-02-29T19:53:04.430Z,17.77
2024-02-29T19:58:13.915Z,18.08
2024-02-29T20:03:18.569Z,18.33
2024-02-29T20:08:25.796Z,17.60
2024-02-29T20:13:31.751Z,18.90
2024-02-29T20:18:36.516Z,20.17
2024-02-29T20:23:41.250Z,21.85
2024-02-29T20:28:47.126Z,21.42
2024-02-29T20:33:52.754Z,20.50
2024-02-29T20:38:57.260Z,23.25
2024-02-29T20:44:02.681Z,20.60
2024-02-29T20:49:07.290Z,19.73
2024-02-29T20:54:11.442Z,19.55
2024-02-29T20:59:16.947Z,20.38
2024-02-29T21:04:21.142Z,18.63
2024-02-29T21:09:25.251Z,21.17
2024-02-29T21:14:30.842Z,20.30
2024-02-29T21:19:35.092Z,18.70
2024-02-29T21:24:39.876Z,18.38
2024-02-29T21:29:47.787Z,20.15
2024-02-29T21:34:51.844Z,18.98
2024-02-29T21:39:57.294Z,18.42
2024-02-29T21:45:03.178Z,18.10
2024-02-29T21:50:08.171Z,17.90
2024-02-29T21:55:12.256Z,19.27
2024-02-29T22:00:18.303Z,20.52
2024-02-29T22:05:22.292Z,17.45
2024-02-29T22:10:26.783Z,17.50
2024-02-29T22:15:32.304Z,18.45
2024-02-29T22:20:36.945Z,16.33
2024-02-29T22:25:41.348Z,17.98
2024-02-29T22:30:47.893Z,16.52
2024-02-29T22:35:52.074Z,16.52
2024-02-29T22:40:56.401Z,16.85
2024-02-29T22:46:02.118Z,16.65
2024-02-29T22:51:06.998Z,16.40
2024-02-29T22:56:11.345Z,18.88
2024-02-29T23:01:17.487Z,18.05
2024-02-29T23:06:21.630Z,16.70
2024-02-29T23:11:25.783Z,15.55
2024-02-29T23:16:31.459Z,16.30
2024-02-29T23:21:35.541Z,16.00
2024-02-29T23:26:39.945Z,15.63
2024-02-29T23:31:45.553Z,14.75
2024-02-29T23:36:51.766Z,13.73
2024-02-29T23:41:56.519Z,12.52
2024-02-29T23:47:02.273Z,11.93
2024-02-29T23:52:07.435Z,13.32
2024-02-29T23:57:11.856Z,13.60
